sensor_id;sensor_type;location;lat;lon;timestamp;P1;durP1;ratioP1;P2;durP2;ratioP2
80193;SDS011;69515;42.072;21.504;2023-11-22T00:02:11;7.03;;;3.78;;
80193;SDS011;69515;42.072;21.504;2023-11-22T00:04:37;9.90;;;4.18;;
80193;SDS011;69515;42.072;21.504;2023-11-22T00:07:03;7.72;;;4.20;;
80193;SDS011;69515;42.072;21.504;2023-11-22T00:09:29;7.97;;;4.40;;
80193;SDS011;69515;42.072;21.504;2023-11-22T00:11:56;8.63;;;4.70;;
80193;SDS011;69515;42.072;21.504;2023-11-22T00:14:25;10.15;;;4.82;;
80193;SDS011;69515;42.072;21.504;2023-11-22T00:16:52;10.70;;;5.80;;
80193;SDS011;69515;42.072;21.504;2023-11-22T00:19:18;9.55;;;6.00;;
80193;SDS011;69515;42.072;21.504;2023-11-22T00:21:47;11.10;;;6.18;;
80193;SDS011;69515;42.072;21.504;2023-11-22T00:24:13;10.68;;;6.43;;
80193;SDS011;69515;42.072;21.504;2023-11-22T00:26:39;8.98;;;6.28;;
80193;SDS011;69515;42.072;21.504;2023-11-22T00:29:06;11.05;;;6.68;;
80193;SDS011;69515;42.072;21.504;2023-11-22T00:31:33;9.88;;;6.43;;
80193;SDS011;69515;42.072;21.504;2023-11-22T00:33:59;14.38;;;7.20;;
80193;SDS011;69515;42.072;21.504;2023-11-22T00:36:25;11.07;;;6.65;;
80193;SDS011;69515;42.072;21.504;2023-11-22T00:38:52;9.48;;;5.90;;
80193;SDS011;69515;42.072;21.504;2023-11-22T00:41:18;10.35;;;6.45;;
80193;SDS011;69515;42.072;21.504;2023-11-22T00:43:45;10.55;;;6.93;;
80193;SDS011;69515;42.072;21.504;2023-11-22T00:46:12;9.13;;;5.65;;
80193;SDS011;69515;42.072;21.504;2023-11-22T00:48:38;11.60;;;6.43;;
80193;SDS011;69515;42.072;21.504;2023-11-22T00:51:04;8.20;;;5.15;;
80193;SDS011;69515;42.072;21.504;2023-11-22T00:53:36;9.77;;;6.38;;
80193;SDS011;69515;42.072;21.504;2023-11-22T00:56:03;8.13;;;5.57;;
80193;SDS011;69515;42.072;21.504;2023-11-22T00:58:31;9.75;;;5.15;;
80193;SDS011;69515;42.072;21.504;2023-11-22T01:00:57;7.07;;;4.60;;
80193;SDS011;69515;42.072;21.504;2023-11-22T01:03:24;8.40;;;5.22;;
80193;SDS011;69515;42.072;21.504;2023-11-22T01:05:50;8.43;;;4.90;;
80193;SDS011;69515;42.072;21.504;2023-11-22T01:08:17;7.55;;;5.00;;
80193;SDS011;69515;42.072;21.504;2023-11-22T01:10:44;8.02;;;4.10;;
80193;SDS011;69515;42.072;21.504;2023-11-22T01:13:11;7.78;;;4.93;;
80193;SDS011;69515;42.072;21.504;2023-11-22T01:15:37;7.68;;;4.38;;
80193;SDS011;69515;42.072;21.504;2023-11-22T01:18:03;8.55;;;4.40;;
80193;SDS011;69515;42.072;21.504;2023-11-22T01:20:29;8.98;;;4.45;;
80193;SDS011;69515;42.072;21.504;2023-11-22T01:22:55;8.13;;;4.35;;
80193;SDS011;69515;42.072;21.504;2023-11-22T01:25:22;7.35;;;4.68;;
80193;SDS011;69515;42.072;21.504;2023-11-22T01:27:48;7.65;;;4.22;;
80193;SDS011;69515;42.072;21.504;2023-11-22T01:30:14;7.40;;;4.50;;
80193;SDS011;69515;42.072;21.504;2023-11-22T01:32:40;7.07;;;3.92;;
80193;SDS011;69515;42.072;21.504;2023-11-22T01:35:07;6.80;;;4.15;;
80193;SDS011;69515;42.072;21.504;2023-11-22T01:37:33;7.40;;;4.40;;
80193;SDS011;69515;42.072;21.504;2023-11-22T01:39:59;6.53;;;4.32;;
80193;SDS011;69515;42.072;21.504;2023-11-22T01:42:27;10.50;;;4.60;;
80193;SDS011;69515;42.072;21.504;2023-11-22T01:44:54;6.93;;;4.07;;
80193;SDS011;69515;42.072;21.504;2023-11-22T01:47:20;8.00;;;4.45;;
80193;SDS011;69515;42.072;21.504;2023-11-22T01:49:47;7.43;;;4.68;;
80193;SDS011;69515;42.072;21.504;2023-11-22T01:52:13;8.13;;;4.70;;
80193;SDS011;69515;42.072;21.504;2023-11-22T01:54:41;8.88;;;4.45;;
80193;SDS011;69515;42.072;21.504;2023-11-22T01:57:09;8.98;;;4.60;;
80193;SDS011;69515;42.072;21.504;2023-11-22T01:59:35;7.88;;;4.20;;
80193;SDS011;69515;42.072;21.504;2023-11-22T02:02:02;7.28;;;4.47;;
80193;SDS011;69515;42.072;21.504;2023-11-22T02:04:28;7.43;;;4.53;;
80193;SDS011;69515;42.072;21.504;2023-11-22T02:06:55;6.82;;;4.32;;
80193;SDS011;69515;42.072;21.504;2023-11-22T02:09:21;7.85;;;4.72;;
80193;SDS011;69515;42.072;21.504;2023-11-22T02:11:47;7.32;;;4.53;;
80193;SDS011;69515;42.072;21.504;2023-11-22T02:14:14;9.23;;;4.63;;
80193;SDS011;69515;42.072;21.504;2023-11-22T02:16:41;7.97;;;4.30;;
80193;SDS011;69515;42.072;21.504;2023-11-22T02:19:08;8.75;;;4.45;;
80193;SDS011;69515;42.072;21.504;2023-11-22T02:21:36;9.23;;;4.75;;
80193;SDS011;69515;42.072;21.504;2023-11-22T02:24:03;7.53;;;4.18;;
80193;SDS011;69515;42.072;21.504;2023-11-22T02:26:29;8.93;;;4.72;;
80193;SDS011;69515;42.072;21.504;2023-11-22T02:28:56;8.60;;;4.45;;
80193;SDS011;69515;42.072;21.504;2023-11-22T02:31:22;8.77;;;4.50;;
80193;SDS011;69515;42.072;21.504;2023-11-22T02:33:49;6.35;;;3.95;;
80193;SDS011;69515;42.072;21.504;2023-11-22T02:36:15;7.53;;;4.50;;
80193;SDS011;69515;42.072;21.504;2023-11-22T02:38:42;6.57;;;4.10;;
80193;SDS011;69515;42.072;21.504;2023-11-22T02:41:11;7.25;;;4.18;;
80193;SDS011;69515;42.072;21.504;2023-11-22T02:43:38;7.43;;;4.40;;
80193;SDS011;69515;42.072;21.504;2023-11-22T02:46:06;6.15;;;4.07;;
80193;SDS011;69515;42.072;21.504;2023-11-22T02:48:34;8.00;;;4.78;;
80193;SDS011;69515;42.072;21.504;2023-11-22T02:51:01;7.95;;;4.05;;
80193;SDS011;69515;42.072;21.504;2023-11-22T02:53:27;8.40;;;4.68;;
80193;SDS011;69515;42.072;21.504;2023-11-22T02:55:55;7.72;;;4.72;;
80193;SDS011;69515;42.072;21.504;2023-11-22T02:58:21;6.60;;;4.07;;
80193;SDS011;69515;42.072;21.504;2023-11-22T03:00:48;8.18;;;4.55;;
80193;SDS011;69515;42.072;21.504;2023-11-22T03:03:14;6.75;;;4.32;;
80193;SDS011;69515;42.072;21.504;2023-11-22T03:05:41;6.38;;;4.18;;
80193;SDS011;69515;42.072;21.504;2023-11-22T03:08:07;6.75;;;4.13;;
80193;SDS011;69515;42.072;21.504;2023-11-22T03:10:35;6.45;;;4.38;;
80193;SDS011;69515;42.072;21.504;2023-11-22T03:13:01;8.38;;;4.20;;
80193;SDS011;69515;42.072;21.504;2023-11-22T03:15:29;7.43;;;4.07;;
80193;SDS011;69515;42.072;21.504;2023-11-22T03:17:55;6.43;;;4.00;;
80193;SDS011;69515;42.072;21.504;2023-11-22T03:20:21;6.70;;;3.95;;
80193;SDS011;69515;42.072;21.504;2023-11-22T03:22:48;5.63;;;4.18;;
80193;SDS011;69515;42.072;21.504;2023-11-22T03:25:15;7.85;;;4.15;;
80193;SDS011;69515;42.072;21.504;2023-11-22T03:27:43;7.72;;;4.43;;
80193;SDS011;69515;42.072;21.504;2023-11-22T03:30:09;8.40;;;4.50;;
80193;SDS011;69515;42.072;21.504;2023-11-22T03:32:39;7.03;;;4.53;;
80193;SDS011;69515;42.072;21.504;2023-11-22T03:35:25;7.82;;;4.60;;
80193;SDS011;69515;42.072;21.504;2023-11-22T03:37:51;6.53;;;4.88;;
80193;SDS011;69515;42.072;21.504;2023-11-22T03:40:17;7.90;;;4.50;;
80193;SDS011;69515;42.072;21.504;2023-11-22T03:42:45;6.97;;;4.50;;
80193;SDS011;69515;42.072;21.504;2023-11-22T03:45:11;7.45;;;4.45;;
80193;SDS011;69515;42.072;21.504;2023-11-22T03:47:38;7.63;;;4.90;;
80193;SDS011;69515;42.072;21.504;2023-11-22T03:50:05;8.18;;;5.10;;
80193;SDS011;69515;42.072;21.504;2023-11-22T03:52:31;7.25;;;4.97;;
80193;SDS011;69515;42.072;21.504;2023-11-22T03:54:57;7.13;;;4.63;;
80193;SDS011;69515;42.072;21.504;2023-11-22T03:57:24;7.10;;;4.55;;
80193;SDS011;69515;42.072;21.504;2023-11-22T03:59:50;10.00;;;5.80;;
80193;SDS011;69515;42.072;21.504;2023-11-22T04:02:16;7.28;;;5.00;;
80193;SDS011;69515;42.072;21.504;2023-11-22T04:04:42;11.13;;;4.88;;
80193;SDS011;69515;42.072;21.504;2023-11-22T04:07:09;7.95;;;5.18;;
80193;SDS011;69515;42.072;21.504;2023-11-22T04:09:35;8.68;;;4.78;;
80193;SDS011;69515;42.072;21.504;2023-11-22T04:12:03;14.35;;;5.22;;
80193;SDS011;69515;42.072;21.504;2023-11-22T04:14:29;7.90;;;4.63;;
80193;SDS011;69515;42.072;21.504;2023-11-22T04:16:55;8.27;;;5.05;;
80193;SDS011;69515;42.072;21.504;2023-11-22T04:19:21;7.47;;;4.60;;
80193;SDS011;69515;42.072;21.504;2023-11-22T04:21:48;7.65;;;4.75;;
80193;SDS011;69515;42.072;21.504;2023-11-22T04:24:14;6.70;;;4.80;;
80193;SDS011;69515;42.072;21.504;2023-11-22T04:26:40;7.80;;;5.40;;
80193;SDS011;69515;42.072;21.504;2023-11-22T04:29:06;8.35;;;5.00;;
80193;SDS011;69515;42.072;21.504;2023-11-22T04:31:33;8.18;;;5.13;;
80193;SDS011;69515;42.072;21.504;2023-11-22T04:33:59;7.35;;;4.35;;
80193;SDS011;69515;42.072;21.504;2023-11-22T04:36:25;7.05;;;4.55;;
80193;SDS011;69515;42.072;21.504;2023-11-22T04:38:52;7.88;;;5.32;;
80193;SDS011;69515;42.072;21.504;2023-11-22T04:41:18;7.88;;;5.05;;
80193;SDS011;69515;42.072;21.504;2023-11-22T04:43:44;7.85;;;5.20;;
80193;SDS011;69515;42.072;21.504;2023-11-22T04:46:11;8.10;;;5.35;;
80193;SDS011;69515;42.072;21.504;2023-11-22T04:48:37;8.25;;;4.97;;
80193;SDS011;69515;42.072;21.504;2023-11-22T04:51:05;7.53;;;5.18;;
80193;SDS011;69515;42.072;21.504;2023-11-22T04:53:31;7.63;;;5.10;;
80193;SDS011;69515;42.072;21.504;2023-11-22T04:55:58;7.55;;;4.95;;
80193;SDS011;69515;42.072;21.504;2023-11-22T04:58:24;10.23;;;4.43;;
80193;SDS011;69515;42.072;21.504;2023-11-22T05:00:50;7.15;;;4.93;;
80193;SDS011;69515;42.072;21.504;2023-11-22T05:03:17;8.60;;;5.50;;
80193;SDS011;69515;42.072;21.504;2023-11-22T05:05:43;7.13;;;4.90;;
80193;SDS011;69515;42.072;21.504;2023-11-22T05:08:10;8.52;;;5.50;;
80193;SDS011;69515;42.072;21.504;2023-11-22T05:10:36;9.27;;;5.65;;
80193;SDS011;69515;42.072;21.504;2023-11-22T05:13:03;8.98;;;5.50;;
80193;SDS011;69515;42.072;21.504;2023-11-22T05:15:30;9.13;;;5.75;;
80193;SDS011;69515;42.072;21.504;2023-11-22T05:17:57;10.60;;;6.82;;
80193;SDS011;69515;42.072;21.504;2023-11-22T05:20:23;8.85;;;6.22;;
80193;SDS011;69515;42.072;21.504;2023-11-22T05:22:49;10.02;;;6.38;;
80193;SDS011;69515;42.072;21.504;2023-11-22T05:25:15;13.05;;;7.25;;
80193;SDS011;69515;42.072;21.504;2023-11-22T05:27:42;11.20;;;6.85;;
80193;SDS011;69515;42.072;21.504;2023-11-22T05:30:09;11.10;;;6.75;;
80193;SDS011;69515;42.072;21.504;2023-11-22T05:32:36;8.52;;;5.63;;
80193;SDS011;69515;42.072;21.504;2023-11-22T05:35:02;9.32;;;5.90;;
80193;SDS011;69515;42.072;21.504;2023-11-22T05:37:31;10.50;;;6.18;;
80193;SDS011;69515;42.072;21.504;2023-11-22T05:39:57;10.32;;;6.70;;
80193;SDS011;69515;42.072;21.504;2023-11-22T05:42:24;8.88;;;5.88;;
80193;SDS011;69515;42.072;21.504;2023-11-22T05:44:50;10.65;;;6.82;;
80193;SDS011;69515;42.072;21.504;2023-11-22T05:47:17;11.32;;;7.53;;
80193;SDS011;69515;42.072;21.504;2023-11-22T05:49:43;10.23;;;7.50;;
80193;SDS011;69515;42.072;21.504;2023-11-22T05:52:09;11.05;;;7.07;;
80193;SDS011;69515;42.072;21.504;2023-11-22T05:54:36;12.23;;;7.65;;
80193;SDS011;69515;42.072;21.504;2023-11-22T05:57:02;12.85;;;7.97;;
80193;SDS011;69515;42.072;21.504;2023-11-22T05:59:29;13.80;;;8.32;;
80193;SDS011;69515;42.072;21.504;2023-11-22T06:01:55;12.48;;;7.95;;
80193;SDS011;69515;42.072;21.504;2023-11-22T06:04:22;13.18;;;8.55;;
80193;SDS011;69515;42.072;21.504;2023-11-22T06:06:48;12.43;;;8.25;;
80193;SDS011;69515;42.072;21.504;2023-11-22T06:09:14;10.73;;;7.70;;
80193;SDS011;69515;42.072;21.504;2023-11-22T06:11:40;15.13;;;8.00;;
80193;SDS011;69515;42.072;21.504;2023-11-22T06:14:07;17.58;;;8.65;;
80193;SDS011;69515;42.072;21.504;2023-11-22T06:16:33;12.50;;;8.50;;
80193;SDS011;69515;42.072;21.504;2023-11-22T06:18:59;10.93;;;7.30;;
80193;SDS011;69515;42.072;21.504;2023-11-22T06:21:25;11.55;;;7.90;;
80193;SDS011;69515;42.072;21.504;2023-11-22T06:23:52;12.75;;;7.53;;
80193;SDS011;69515;42.072;21.504;2023-11-22T06:26:21;11.25;;;8.38;;
80193;SDS011;69515;42.072;21.504;2023-11-22T06:28:47;13.07;;;8.40;;
80193;SDS011;69515;42.072;21.504;2023-11-22T06:31:14;12.20;;;8.45;;
80193;SDS011;69515;42.072;21.504;2023-11-22T06:33:41;14.98;;;9.13;;
80193;SDS011;69515;42.072;21.504;2023-11-22T06:36:07;12.60;;;8.52;;
80193;SDS011;69515;42.072;21.504;2023-11-22T06:38:36;17.35;;;9.55;;
80193;SDS011;69515;42.072;21.504;2023-11-22T06:41:02;12.85;;;9.48;;
80193;SDS011;69515;42.072;21.504;2023-11-22T06:43:29;15.52;;;9.55;;
80193;SDS011;69515;42.072;21.504;2023-11-22T06:45:55;13.80;;;9.10;;
80193;SDS011;69515;42.072;21.504;2023-11-22T06:48:21;12.10;;;7.97;;
80193;SDS011;69515;42.072;21.504;2023-11-22T06:50:48;13.07;;;8.80;;
80193;SDS011;69515;42.072;21.504;2023-11-22T06:53:14;13.18;;;9.23;;
80193;SDS011;69515;42.072;21.504;2023-11-22T06:55:44;11.95;;;8.85;;
80193;SDS011;69515;42.072;21.504;2023-11-22T06:58:11;14.90;;;9.77;;
80193;SDS011;69515;42.072;21.504;2023-11-22T07:00:38;12.80;;;8.98;;
80193;SDS011;69515;42.072;21.504;2023-11-22T07:03:05;15.90;;;9.15;;
80193;SDS011;69515;42.072;21.504;2023-11-22T07:05:31;12.82;;;9.77;;
80193;SDS011;69515;42.072;21.504;2023-11-22T07:07:58;25.85;;;16.42;;
80193;SDS011;69515;42.072;21.504;2023-11-22T07:10:24;15.05;;;10.07;;
80193;SDS011;69515;42.072;21.504;2023-11-22T07:12:51;17.92;;;11.52;;
80193;SDS011;69515;42.072;21.504;2023-11-22T07:15:18;16.15;;;10.85;;
80193;SDS011;69515;42.072;21.504;2023-11-22T07:17:44;15.02;;;9.93;;
80193;SDS011;69515;42.072;21.504;2023-11-22T07:20:10;14.82;;;9.95;;
80193;SDS011;69515;42.072;21.504;2023-11-22T07:22:42;13.55;;;9.15;;
80193;SDS011;69515;42.072;21.504;2023-11-22T07:25:09;14.57;;;10.70;;
80193;SDS011;69515;42.072;21.504;2023-11-22T07:27:46;18.42;;;13.88;;
80193;SDS011;69515;42.072;21.504;2023-11-22T07:30:13;20.85;;;13.35;;
80193;SDS011;69515;42.072;21.504;2023-11-22T07:32:40;18.58;;;13.35;;
80193;SDS011;69515;42.072;21.504;2023-11-22T07:35:07;15.95;;;11.02;;
80193;SDS011;69515;42.072;21.504;2023-11-22T07:37:37;16.80;;;11.52;;
80193;SDS011;69515;42.072;21.504;2023-11-22T07:40:09;19.58;;;12.48;;
80193;SDS011;69515;42.072;21.504;2023-11-22T07:42:38;15.88;;;10.85;;
80193;SDS011;69515;42.072;21.504;2023-11-22T07:45:05;17.25;;;12.38;;
80193;SDS011;69515;42.072;21.504;2023-11-22T07:47:32;16.58;;;11.88;;
80193;SDS011;69515;42.072;21.504;2023-11-22T07:49:58;16.92;;;11.70;;
80193;SDS011;69515;42.072;21.504;2023-11-22T07:52:27;15.02;;;11.85;;
80193;SDS011;69515;42.072;21.504;2023-11-22T07:54:58;15.43;;;11.32;;
80193;SDS011;69515;42.072;21.504;2023-11-22T07:57:27;16.65;;;11.93;;
80193;SDS011;69515;42.072;21.504;2023-11-22T07:59:53;17.17;;;12.38;;
80193;SDS011;69515;42.072;21.504;2023-11-22T08:02:21;17.45;;;11.95;;
80193;SDS011;69515;42.072;21.504;2023-11-22T08:04:47;17.73;;;12.27;;
80193;SDS011;69515;42.072;21.504;2023-11-22T08:07:15;17.55;;;11.32;;
80193;SDS011;69515;42.072;21.504;2023-11-22T08:09:42;17.95;;;12.32;;
80193;SDS011;69515;42.072;21.504;2023-11-22T08:12:11;17.33;;;12.15;;
80193;SDS011;69515;42.072;21.504;2023-11-22T08:14:38;18.73;;;11.73;;
80193;SDS011;69515;42.072;21.504;2023-11-22T08:17:05;15.88;;;10.80;;
80193;SDS011;69515;42.072;21.504;2023-11-22T08:19:31;14.68;;;10.80;;
80193;SDS011;69515;42.072;21.504;2023-11-22T08:21:59;15.85;;;10.98;;
80193;SDS011;69515;42.072;21.504;2023-11-22T08:24:25;16.25;;;10.35;;
80193;SDS011;69515;42.072;21.504;2023-11-22T08:26:52;21.75;;;13.77;;
80193;SDS011;69515;42.072;21.504;2023-11-22T08:29:19;29.83;;;13.75;;
80193;SDS011;69515;42.072;21.504;2023-11-22T08:32:06;24.27;;;14.68;;
80193;SDS011;69515;42.072;21.504;2023-11-22T08:34:33;18.40;;;13.07;;
80193;SDS011;69515;42.072;21.504;2023-11-22T08:36:59;19.90;;;14.52;;
80193;SDS011;69515;42.072;21.504;2023-11-22T08:39:26;21.25;;;14.70;;
80193;SDS011;69515;42.072;21.504;2023-11-22T08:41:52;21.33;;;15.35;;
80193;SDS011;69515;42.072;21.504;2023-11-22T08:44:19;17.67;;;13.35;;
80193;SDS011;69515;42.072;21.504;2023-11-22T08:47:06;20.35;;;13.52;;
80193;SDS011;69515;42.072;21.504;2023-11-22T08:49:33;15.32;;;10.63;;
80193;SDS011;69515;42.072;21.504;2023-11-22T08:52:00;22.30;;;12.27;;
80193;SDS011;69515;42.072;21.504;2023-11-22T08:54:28;15.02;;;11.65;;
80193;SDS011;69515;42.072;21.504;2023-11-22T08:56:55;34.75;;;21.27;;
80193;SDS011;69515;42.072;21.504;2023-11-22T08:59:21;29.08;;;19.00;;
80193;SDS011;69515;42.072;21.504;2023-11-22T09:02:08;21.90;;;16.15;;
80193;SDS011;69515;42.072;21.504;2023-11-22T09:04:35;21.52;;;14.07;;
80193;SDS011;69515;42.072;21.504;2023-11-22T09:07:03;20.55;;;13.00;;
80193;SDS011;69515;42.072;21.504;2023-11-22T09:09:31;20.02;;;12.40;;
80193;SDS011;69515;42.072;21.504;2023-11-22T09:11:57;17.65;;;11.15;;
80193;SDS011;69515;42.072;21.504;2023-11-22T09:14:24;16.27;;;10.35;;
80193;SDS011;69515;42.072;21.504;2023-11-22T09:16:50;16.52;;;10.88;;
80193;SDS011;69515;42.072;21.504;2023-11-22T09:19:22;15.32;;;9.80;;
80193;SDS011;69515;42.072;21.504;2023-11-22T09:21:48;16.10;;;9.77;;
80193;SDS011;69515;42.072;21.504;2023-11-22T09:24:17;15.10;;;10.18;;
80193;SDS011;69515;42.072;21.504;2023-11-22T09:26:45;11.35;;;7.53;;
80193;SDS011;69515;42.072;21.504;2023-11-22T09:29:11;12.13;;;8.00;;
80193;SDS011;69515;42.072;21.504;2023-11-22T09:31:40;15.52;;;11.05;;
80193;SDS011;69515;42.072;21.504;2023-11-22T09:34:11;16.98;;;10.63;;
80193;SDS011;69515;42.072;21.504;2023-11-22T09:36:38;17.40;;;12.32;;
80193;SDS011;69515;42.072;21.504;2023-11-22T09:39:05;16.80;;;12.57;;
80193;SDS011;69515;42.072;21.504;2023-11-22T09:41:35;23.45;;;15.75;;
80193;SDS011;69515;42.072;21.504;2023-11-22T09:44:01;24.63;;;17.23;;
80193;SDS011;69515;42.072;21.504;2023-11-22T09:46:28;26.98;;;20.30;;
80193;SDS011;69515;42.072;21.504;2023-11-22T09:48:56;25.92;;;19.58;;
80193;SDS011;69515;42.072;21.504;2023-11-22T09:53:56;22.83;;;17.90;;
80193;SDS011;69515;42.072;21.504;2023-11-22T09:56:24;20.42;;;14.50;;
80193;SDS011;69515;42.072;21.504;2023-11-22T09:58:54;21.55;;;15.73;;
80193;SDS011;69515;42.072;21.504;2023-11-22T10:01:24;24.33;;;18.55;;
80193;SDS011;69515;42.072;21.504;2023-11-22T10:03:50;22.30;;;18.13;;
80193;SDS011;69515;42.072;21.504;2023-11-22T10:06:17;22.35;;;16.20;;
80193;SDS011;69515;42.072;21.504;2023-11-22T10:08:44;18.02;;;13.23;;
80193;SDS011;69515;42.072;21.504;2023-11-22T10:11:16;17.05;;;12.65;;
80193;SDS011;69515;42.072;21.504;2023-11-22T10:13:43;25.08;;;16.50;;
80193;SDS011;69515;42.072;21.504;2023-11-22T10:16:11;23.10;;;15.65;;
80193;SDS011;69515;42.072;21.504;2023-11-22T10:18:44;23.38;;;14.65;;
80193;SDS011;69515;42.072;21.504;2023-11-22T10:21:31;21.00;;;16.55;;
80193;SDS011;69515;42.072;21.504;2023-11-22T10:24:05;23.60;;;17.60;;
80193;SDS011;69515;42.072;21.504;2023-11-22T10:26:34;28.23;;;17.40;;
80193;SDS011;69515;42.072;21.504;2023-11-22T10:29:00;20.08;;;15.68;;
80193;SDS011;69515;42.072;21.504;2023-11-22T10:31:27;21.98;;;15.90;;
80193;SDS011;69515;42.072;21.504;2023-11-22T10:33:54;19.75;;;16.30;;
80193;SDS011;69515;42.072;21.504;2023-11-22T10:36:22;21.73;;;15.93;;
80193;SDS011;69515;42.072;21.504;2023-11-22T10:38:49;22.13;;;17.02;;
80193;SDS011;69515;42.072;21.504;2023-11-22T10:41:19;24.30;;;17.85;;
80193;SDS011;69515;42.072;21.504;2023-11-22T10:43:49;26.20;;;19.67;;
80193;SDS011;69515;42.072;21.504;2023-11-22T10:46:21;24.85;;;18.52;;
80193;SDS011;69515;42.072;21.504;2023-11-22T10:48:47;29.83;;;21.55;;
80193;SDS011;69515;42.072;21.504;2023-11-22T10:51:13;29.85;;;20.83;;
80193;SDS011;69515;42.072;21.504;2023-11-22T10:53:43;29.85;;;21.13;;
80193;SDS011;69515;42.072;21.504;2023-11-22T10:56:11;31.88;;;22.15;;
80193;SDS011;69515;42.072;21.504;2023-11-22T10:58:47;28.20;;;20.58;;
80193;SDS011;69515;42.072;21.504;2023-11-22T11:01:20;26.38;;;20.42;;
80193;SDS011;69515;42.072;21.504;2023-11-22T11:06:39;18.73;;;15.02;;
80193;SDS011;69515;42.072;21.504;2023-11-22T11:09:07;18.52;;;14.65;;
80193;SDS011;69515;42.072;21.504;2023-11-22T11:11:37;28.77;;;17.15;;
80193;SDS011;69515;42.072;21.504;2023-11-22T11:14:07;21.30;;;15.27;;
80193;SDS011;69515;42.072;21.504;2023-11-22T11:16:53;22.48;;;16.02;;
80193;SDS011;69515;42.072;21.504;2023-11-22T11:19:23;22.65;;;15.57;;
80193;SDS011;69515;42.072;21.504;2023-11-22T11:21:50;21.70;;;15.98;;
80193;SDS011;69515;42.072;21.504;2023-11-22T11:24:17;23.27;;;16.67;;
80193;SDS011;69515;42.072;21.504;2023-11-22T11:26:49;23.75;;;18.13;;
80193;SDS011;69515;42.072;21.504;2023-11-22T11:29:36;25.05;;;18.25;;
80193;SDS011;69515;42.072;21.504;2023-11-22T11:32:51;24.08;;;16.42;;
80193;SDS011;69515;42.072;21.504;2023-11-22T11:34:52;22.63;;;16.42;;
80193;SDS011;69515;42.072;21.504;2023-11-22T11:37:19;29.05;;;16.95;;
80193;SDS011;69515;42.072;21.504;2023-11-22T11:39:45;23.48;;;16.73;;
80193;SDS011;69515;42.072;21.504;2023-11-22T11:42:12;26.02;;;17.05;;
80193;SDS011;69515;42.072;21.504;2023-11-22T11:44:51;21.83;;;16.15;;
80193;SDS011;69515;42.072;21.504;2023-11-22T11:47:28;27.00;;;18.42;;
80193;SDS011;69515;42.072;21.504;2023-11-22T11:49:58;25.80;;;17.63;;
80193;SDS011;69515;42.072;21.504;2023-11-22T11:52:30;23.73;;;17.08;;
80193;SDS011;69515;42.072;21.504;2023-11-22T11:55:00;22.95;;;18.55;;
80193;SDS011;69515;42.072;21.504;2023-11-22T11:57:30;25.23;;;17.77;;
80193;SDS011;69515;42.072;21.504;2023-11-22T12:00:00;23.63;;;17.88;;
80193;SDS011;69515;42.072;21.504;2023-11-22T12:04:55;24.67;;;17.80;;
80193;SDS011;69515;42.072;21.504;2023-11-22T12:07:22;26.75;;;19.75;;
80193;SDS011;69515;42.072;21.504;2023-11-22T12:09:48;27.15;;;21.20;;
80193;SDS011;69515;42.072;21.504;2023-11-22T12:12:14;27.90;;;22.25;;
80193;SDS011;69515;42.072;21.504;2023-11-22T12:14:40;29.42;;;20.85;;
80193;SDS011;69515;42.072;21.504;2023-11-22T12:17:06;30.15;;;21.77;;
80193;SDS011;69515;42.072;21.504;2023-11-22T12:19:43;30.67;;;22.15;;
80193;SDS011;69515;42.072;21.504;2023-11-22T12:22:10;29.88;;;22.65;;
80193;SDS011;69515;42.072;21.504;2023-11-22T12:24:37;31.65;;;24.63;;
80193;SDS011;69515;42.072;21.504;2023-11-22T12:27:03;31.80;;;23.45;;
80193;SDS011;69515;42.072;21.504;2023-11-22T12:29:38;34.92;;;26.48;;
80193;SDS011;69515;42.072;21.504;2023-11-22T12:32:07;35.47;;;25.73;;
80193;SDS011;69515;42.072;21.504;2023-11-22T12:34:54;35.80;;;25.98;;
80193;SDS011;69515;42.072;21.504;2023-11-22T12:37:20;34.80;;;25.90;;
80193;SDS011;69515;42.072;21.504;2023-11-22T12:39:50;35.58;;;26.13;;
80193;SDS011;69515;42.072;21.504;2023-11-22T12:42:20;34.78;;;26.98;;
80193;SDS011;69515;42.072;21.504;2023-11-22T12:44:48;34.67;;;26.02;;
80193;SDS011;69515;42.072;21.504;2023-11-22T12:47:33;37.65;;;28.73;;
80193;SDS011;69515;42.072;21.504;2023-11-22T12:50:03;39.05;;;29.27;;
80193;SDS011;69515;42.072;21.504;2023-11-22T12:52:29;37.90;;;27.13;;
80193;SDS011;69515;42.072;21.504;2023-11-22T12:54:58;35.80;;;25.88;;
80193;SDS011;69515;42.072;21.504;2023-11-22T12:57:28;40.47;;;28.38;;
80193;SDS011;69515;42.072;21.504;2023-11-22T12:59:54;33.15;;;26.23;;
80193;SDS011;69515;42.072;21.504;2023-11-22T13:02:20;33.28;;;24.92;;
80193;SDS011;69515;42.072;21.504;2023-11-22T13:04:47;34.05;;;25.85;;
80193;SDS011;69515;42.072;21.504;2023-11-22T13:07:13;34.83;;;25.80;;
80193;SDS011;69515;42.072;21.504;2023-11-22T13:09:40;36.53;;;26.85;;
80193;SDS011;69515;42.072;21.504;2023-11-22T13:12:06;34.80;;;24.95;;
80193;SDS011;69515;42.072;21.504;2023-11-22T13:14:32;30.73;;;24.13;;
80193;SDS011;69515;42.072;21.504;2023-11-22T13:17:03;30.35;;;24.17;;
80193;SDS011;69515;42.072;21.504;2023-11-22T13:19:29;31.90;;;23.83;;
80193;SDS011;69515;42.072;21.504;2023-11-22T13:21:57;30.98;;;23.15;;
80193;SDS011;69515;42.072;21.504;2023-11-22T13:24:23;30.08;;;22.17;;
80193;SDS011;69515;42.072;21.504;2023-11-22T13:26:50;29.40;;;22.05;;
80193;SDS011;69515;42.072;21.504;2023-11-22T13:29:16;33.28;;;22.70;;
80193;SDS011;69515;42.072;21.504;2023-11-22T13:31:43;31.60;;;22.52;;
80193;SDS011;69515;42.072;21.504;2023-11-22T13:34:10;30.35;;;23.08;;
80193;SDS011;69515;42.072;21.504;2023-11-22T13:36:37;31.38;;;23.10;;
80193;SDS011;69515;42.072;21.504;2023-11-22T13:39:23;30.33;;;21.77;;
80193;SDS011;69515;42.072;21.504;2023-11-22T13:41:49;32.80;;;22.10;;
80193;SDS011;69515;42.072;21.504;2023-11-22T13:44:15;34.58;;;22.85;;
80193;SDS011;69515;42.072;21.504;2023-11-22T13:46:43;28.42;;;21.73;;
80193;SDS011;69515;42.072;21.504;2023-11-22T13:49:09;32.53;;;23.90;;
80193;SDS011;69515;42.072;21.504;2023-11-22T13:51:36;29.90;;;20.88;;
80193;SDS011;69515;42.072;21.504;2023-11-22T13:54:02;23.20;;;19.05;;
80193;SDS011;69515;42.072;21.504;2023-11-22T13:56:30;23.58;;;17.67;;
80193;SDS011;69515;42.072;21.504;2023-11-22T13:59:17;23.42;;;18.15;;
80193;SDS011;69515;42.072;21.504;2023-11-22T14:01:43;26.30;;;18.70;;
80193;SDS011;69515;42.072;21.504;2023-11-22T14:04:10;21.48;;;15.77;;
80193;SDS011;69515;42.072;21.504;2023-11-22T14:06:36;23.17;;;16.85;;
80193;SDS011;69515;42.072;21.504;2023-11-22T14:09:03;24.52;;;17.35;;
80193;SDS011;69515;42.072;21.504;2023-11-22T14:11:30;22.55;;;16.23;;
80193;SDS011;69515;42.072;21.504;2023-11-22T14:13:58;19.30;;;14.27;;
80193;SDS011;69515;42.072;21.504;2023-11-22T14:16:27;16.50;;;13.55;;
80193;SDS011;69515;42.072;21.504;2023-11-22T14:18:56;20.02;;;14.88;;
80193;SDS011;69515;42.072;21.504;2023-11-22T14:21:23;21.02;;;13.98;;
80193;SDS011;69515;42.072;21.504;2023-11-22T14:23:50;18.92;;;13.23;;
80193;SDS011;69515;42.072;21.504;2023-11-22T14:26:36;17.98;;;13.20;;
80193;SDS011;69515;42.072;21.504;2023-11-22T14:29:03;17.02;;;12.80;;
80193;SDS011;69515;42.072;21.504;2023-11-22T14:31:30;18.20;;;13.23;;